Time;durP1;ratioP1;P1;durP2;ratioP2;P2;SDS_P1;SDS_P2;PMS_P1;PMS_P2;Temp;Humidity;BMP_temperature;BMP_pressure;BME280_temperature;BME280_humidity;BME280_pressure;Samples;Min_cycle;Max_cycle;Signal;HPM_P1;HPM_P2
2021/08/18 00:00:21;;;;;;;1.40;0.80;;;21.90;85.70;;;;;;5091781;28;20387;-75
2021/08/18 00:02:47;;;;;;;1.02;1.00;;;21.60;86.50;;;;;;5092325;28;20024;-75
2021/08/18 00:05:15;;;;;;;3.33;1.20;;;21.70;86.70;;;;;;5092122;28;20112;-75
2021/08/18 00:07:42;;;;;;;0.80;0.80;;;21.70;86.80;;;;;;5091516;28;20047;-74
2021/08/18 00:10:10;;;;;;;0.93;0.93;;;21.50;87.50;;;;;;5071978;28;20020;-74
2021/08/18 00:12:36;;;;;;;0.95;0.80;;;21.50;88.20;;;;;;5090698;28;20486;-75
2021/08/18 00:15:03;;;;;;;3.10;1.13;;;21.50;87.90;;;;;;5091249;28;20032;-74
2021/08/18 00:17:28;;;;;;;2.65;1.00;;;21.50;88.10;;;;;;5092441;28;20475;-75
2021/08/18 00:19:54;;;;;;;1.33;1.20;;;21.60;87.70;;;;;;5092102;28;20093;-75
2021/08/18 00:22:20;;;;;;;1.15;0.82;;;21.60;88.10;;;;;;5091613;28;20118;-75
2021/08/18 00:24:45;;;;;;;1.63;1.10;;;21.60;87.40;;;;;;5092043;28;20082;-75
2021/08/18 00:27:11;;;;;;;2.03;1.00;;;21.60;87.70;;;;;;5091321;28;20387;-75
2021/08/18 00:29:37;;;;;;;1.42;1.33;;;21.50;87.80;;;;;;5091687;28;20047;-75
2021/08/18 00:32:03;;;;;;;1.58;1.48;;;21.40;88.30;;;;;;5073649;28;20024;-75
2021/08/18 00:34:29;;;;;;;1.60;1.30;;;21.40;88.70;;;;;;5091520;28;20034;-75
2021/08/18 00:36:55;;;;;;;1.15;1.05;;;21.30;89.30;;;;;;5091508;28;20107;-75
2021/08/18 00:39:21;;;;;;;5.65;0.80;;;21.30;89.30;;;;;;5088317;28;20059;-75
2021/08/18 00:41:58;;;;;;;3.35;1.15;;;21.40;88.80;;;;;;5082305;28;20425;-75
2021/08/18 00:44:24;;;;;;;1.02;0.90;;;21.20;89.60;;;;;;5074560;28;20077;-75
2021/08/18 00:46:55;;;;;;;2.08;1.38;;;21.20;90.20;;;;;;5064938;28;20029;-75
2021/08/18 00:49:22;;;;;;;1.30;1.20;;;21.20;90.30;;;;;;5068411;28;20023;-75
2021/08/18 00:51:49;;;;;;;1.33;1.10;;;21.20;90.30;;;;;;5066348;28;20467;-75
2021/08/18 00:54:16;;;;;;;2.67;1.60;;;21.30;90.10;;;;;;5085761;28;20091;-75
2021/08/18 00:56:43;;;;;;;1.13;1.02;;;21.30;89.70;;;;;;5091618;28;20027;-75
2021/08/18 00:59:10;;;;;;;1.33;1.20;;;21.50;89.20;;;;;;5091296;28;20035;-75
2021/08/18 01:01:37;;;;;;;1.15;1.02;;;21.50;88.50;;;;;;5091872;28;20391;-75
2021/08/18 01:04:04;;;;;;;2.10;1.13;;;21.50;88.50;;;;;;5076977;28;20027;-75
2021/08/18 01:06:31;;;;;;;1.45;1.10;;;21.50;88.50;;;;;;5094222;28;20129;-75
2021/08/18 01:08:57;;;;;;;1.40;0.88;;;21.50;89.10;;;;;;5093772;28;20020;-75
2021/08/18 01:11:23;;;;;;;5.97;1.00;;;21.30;89.30;;;;;;5093548;28;20051;-75
2021/08/18 01:13:49;;;;;;;4.20;1.20;;;21.30;89.50;;;;;;5093499;28;20031;-74
2021/08/18 01:16:15;;;;;;;3.45;1.38;;;21.20;90.10;;;;;;5093533;28;20487;-75
2021/08/18 01:18:41;;;;;;;1.25;0.90;;;21.10;90.30;;;;;;5093317;28;20058;-75
2021/08/18 01:21:08;;;;;;;1.33;1.20;;;21.10;90.30;;;;;;5093990;28;20020;-75
2021/08/18 01:23:33;;;;;;;1.52;0.70;;;21.20;90.20;;;;;;5095267;28;20028;-75
2021/08/18 01:25:59;;;;;;;1.27;1.02;;;21.20;90.20;;;;;;5095201;28;20026;-75
2021/08/18 01:28:29;;;;;;;0.80;0.80;;;21.20;90.20;;;;;;5095171;28;20243;-75
2021/08/18 01:30:55;;;;;;;2.92;1.63;;;21.30;90.10;;;;;;5095122;28;20437;-75
2021/08/18 01:33:21;;;;;;;4.40;1.10;;;21.20;90.10;;;;;;5094792;28;20494;-75
2021/08/18 01:35:49;;;;;;;1.20;1.10;;;21.30;90.10;;;;;;5095046;28;20467;-75
2021/08/18 01:38:17;;;;;;;1.80;1.30;;;21.10;90.40;;;;;;5094928;28;20031;-75
2021/08/18 01:40:46;;;;;;;2.17;1.55;;;21.20;90.40;;;;;;5094999;28;20035;-74
2021/08/18 01:43:12;;;;;;;1.20;1.10;;;21.20;90.50;;;;;;5076585;28;20383;-75
2021/08/18 01:45:41;;;;;;;1.13;0.98;;;21.20;90.40;;;;;;5076484;28;20024;-75
2021/08/18 01:48:18;;;;;;;2.78;1.40;;;21.10;90.10;;;;;;5094798;28;20267;-75
2021/08/18 01:50:46;;;;;;;1.35;1.25;;;21.20;90.20;;;;;;5094885;28;20107;-75
2021/08/18 01:53:18;;;;;;;0.88;0.88;;;21.30;90.70;;;;;;5094566;28;20035;-75
2021/08/18 01:55:44;;;;;;;;;;;21.20;90.20;;;;;;5095322;28;20483;-75
2021/08/18 01:58:10;;;;;;;1.17;0.88;;;21.20;90.20;;;;;;5094472;28;19958;-75
2021/08/18 02:00:36;;;;;;;1.38;1.27;;;21.20;90.10;;;;;;5094613;28;20028;-75
2021/08/18 02:03:01;;;;;;;1.40;1.27;;;21.20;90.30;;;;;;5076124;28;20444;-74
2021/08/18 02:05:27;;;;;;;1.45;1.00;;;21.20;90.30;;;;;;5094310;28;20024;-75
2021/08/18 02:07:54;;;;;;;1.45;1.35;;;21.20;90.20;;;;;;5094511;28;20122;-75
2021/08/18 02:10:21;;;;;;;2.90;0.93;;;21.20;90.10;;;;;;5094291;28;20028;-75
2021/08/18 02:12:47;;;;;;;1.00;1.00;;;21.10;90.10;;;;;;5076007;28;20441;-75
2021/08/18 02:15:20;;;;;;;1.70;1.10;;;21.10;90.30;;;;;;5076026;28;20054;-75
2021/08/18 02:17:46;;;;;;;1.70;1.60;;;21.00;90.60;;;;;;5094286;28;20107;-75
2021/08/18 02:20:16;;;;;;;1.30;1.20;;;20.90;90.90;;;;;;5094173;28;20062;-75
2021/08/18 02:22:42;;;;;;;1.58;0.85;;;20.90;91.00;;;;;;5094121;28;20077;-75
2021/08/18 02:25:09;;;;;;;1.17;1.08;;;20.90;91.00;;;;;;5094048;28;20020;-75
2021/08/18 02:27:35;;;;;;;1.73;1.58;;;20.90;91.00;;;;;;5093963;28;20095;-75
2021/08/18 02:30:00;;;;;;;1.38;1.27;;;20.90;90.90;;;;;;5094020;28;20059;-74
2021/08/18 02:32:26;;;;;;;1.38;1.27;;;20.80;91.00;;;;;;5093937;28;20024;-75
2021/08/18 02:34:52;;;;;;;1.13;1.00;;;20.90;91.10;;;;;;5093781;28;20078;-75
2021/08/18 02:37:18;;;;;;;2.67;1.42;;;20.90;91.10;;;;;;5094027;28;20023;-75
2021/08/18 02:39:44;;;;;;;0.90;0.90;;;20.90;91.20;;;;;;5093615;28;20028;-75
2021/08/18 02:42:09;;;;;;;2.08;1.13;;;20.90;91.20;;;;;;5075603;28;20035;-75
2021/08/18 02:44:35;;;;;;;2.33;1.00;;;20.90;91.40;;;;;;5093683;28;20027;-75
2021/08/18 02:47:01;;;;;;;1.60;1.40;;;20.80;91.70;;;;;;5093667;28;20016;-75
2021/08/18 02:49:27;;;;;;;1.20;1.10;;;20.80;91.50;;;;;;5090494;28;20369;-75
2021/08/18 02:51:53;;;;;;;2.25;1.00;;;20.70;91.70;;;;;;5093550;28;20023;-75
2021/08/18 02:54:19;;;;;;;1.55;1.23;;;20.70;91.70;;;;;;5093400;28;20031;-75
2021/08/18 02:56:44;;;;;;;5.07;1.42;;;20.80;91.90;;;;;;5093611;28;20387;-75
2021/08/18 02:59:11;;;;;;;1.23;1.05;;;20.70;91.80;;;;;;5093572;28;20447;-75
2021/08/18 03:01:38;;;;;;;1.20;1.10;;;20.70;91.90;;;;;;5093355;28;20023;-75
2021/08/18 03:04:04;;;;;;;1.52;0.77;;;20.70;91.80;;;;;;5093322;28;20498;-75
2021/08/18 03:06:30;;;;;;;3.20;0.93;;;20.70;91.90;;;;;;5075008;28;20043;-75
2021/08/18 03:08:55;;;;;;;2.33;1.20;;;20.70;91.90;;;;;;5093203;28;20020;-75
2021/08/18 03:11:21;;;;;;;1.25;0.95;;;20.70;91.90;;;;;;5075161;28;20024;-75
2021/08/18 03:13:47;;;;;;;1.63;1.15;;;20.80;92.10;;;;;;5093005;28;20476;-75
2021/08/18 03:16:13;;;;;;;1.50;1.40;;;20.70;92.10;;;;;;5093023;28;20024;-75
2021/08/18 03:18:38;;;;;;;1.52;1.23;;;20.70;92.20;;;;;;5093198;28;20428;-75
2021/08/18 03:21:04;;;;;;;1.40;1.20;;;20.70;92.20;;;;;;5093012;28;20024;-75
2021/08/18 03:23:30;;;;;;;1.83;0.90;;;20.70;92.20;;;;;;5092850;28;20372;-75
2021/08/18 03:25:56;;;;;;;1.95;1.05;;;20.70;92.40;;;;;;5092409;28;20038;-75
2021/08/18 03:28:21;;;;;;;2.17;1.10;;;20.60;92.40;;;;;;5074646;28;20024;-75
2021/08/18 03:30:47;;;;;;;1.40;1.10;;;20.60;92.60;;;;;;5092888;28;20077;-75
2021/08/18 03:33:13;;;;;;;1.08;1.08;;;20.60;92.60;;;;;;5092812;28;20032;-75
2021/08/18 03:35:38;;;;;;;2.00;1.15;;;20.60;92.50;;;;;;5092644;28;20373;-75
2021/08/18 03:38:04;;;;;;;0.88;0.88;;;20.70;92.60;;;;;;5092985;28;20062;-75
2021/08/18 03:40:30;;;;;;;1.42;1.00;;;20.50;92.60;;;;;;5092553;28;20173;-75
2021/08/18 03:42:55;;;;;;;1.15;1.05;;;20.60;92.80;;;;;;5092428;28;20391;-75
2021/08/18 03:45:21;;;;;;;1.83;1.30;;;20.50;93.00;;;;;;5092647;28;20024;-75
2021/08/18 03:47:47;;;;;;;1.58;1.05;;;20.50;93.00;;;;;;5092461;28;20526;-75
2021/08/18 03:50:13;;;;;;;1.60;1.15;;;20.60;93.10;;;;;;5074272;28;20066;-75
2021/08/18 03:52:40;;;;;;;1.20;1.10;;;20.50;93.00;;;;;;5092612;28;20103;-75
2021/08/18 03:55:07;;;;;;;2.58;1.05;;;20.50;93.00;;;;;;5092222;28;20040;-75
2021/08/18 03:57:33;;;;;;;1.23;1.00;;;20.60;93.10;;;;;;5092214;28;20479;-75
2021/08/18 03:59:59;;;;;;;1.90;1.33;;;20.50;93.00;;;;;;5092462;28;20027;-75
2021/08/18 04:02:25;;;;;;;1.42;1.33;;;20.50;93.30;;;;;;5074090;28;20024;-75
2021/08/18 04:04:51;;;;;;;1.48;1.13;;;20.50;93.20;;;;;;5073940;28;20020;-75
2021/08/18 04:07:17;;;;;;;2.10;1.05;;;20.50;93.40;;;;;;5091997;28;20070;-75
2021/08/18 04:09:43;;;;;;;1.40;1.30;;;20.50;93.50;;;;;;5092068;28;20073;-75
2021/08/18 04:12:09;;;;;;;1.70;1.30;;;20.40;93.70;;;;;;5092075;28;20020;-75
2021/08/18 04:14:35;;;;;;;1.25;1.15;;;20.40;94.20;;;;;;5073988;28;20024;-75
2021/08/18 04:17:01;;;;;;;2.88;1.10;;;20.40;93.90;;;;;;5092030;28;20028;-75
2021/08/18 04:19:27;;;;;;;2.47;1.02;;;20.40;93.90;;;;;;5091844;28;20016;-75
2021/08/18 04:21:52;;;;;;;1.52;1.38;;;20.40;93.80;;;;;;5091981;28;20060;-75
2021/08/18 04:24:18;;;;;;;4.45;1.00;;;20.40;93.90;;;;;;5091817;28;20035;-75
2021/08/18 04:26:44;;;;;;;3.03;1.67;;;20.40;93.90;;;;;;5091845;28;20110;-75
2021/08/18 04:29:09;;;;;;;2.25;1.40;;;20.40;93.90;;;;;;5073739;28;20059;-75
2021/08/18 04:31:36;;;;;;;3.40;1.20;;;20.40;94.00;;;;;;5091691;28;20020;-75
2021/08/18 04:34:01;;;;;;;1.92;0.88;;;20.40;94.00;;;;;;5091611;28;20027;-75
2021/08/18 04:36:27;;;;;;;5.18;1.30;;;20.30;94.20;;;;;;5090979;28;20114;-75
2021/08/18 04:38:53;;;;;;;1.23;1.00;;;20.20;94.40;;;;;;5091724;28;20027;-75
2021/08/18 04:41:18;;;;;;;5.63;1.30;;;20.20;94.40;;;;;;5091740;28;20500;-75
2021/08/18 04:43:44;;;;;;;3.33;1.17;;;20.20;94.50;;;;;;5091441;28;20020;-75
2021/08/18 04:46:10;;;;;;;2.75;1.00;;;20.30;94.40;;;;;;5091613;28;20107;-75
2021/08/18 04:48:36;;;;;;;1.55;1.10;;;20.30;94.40;;;;;;5088482;28;20498;-75
2021/08/18 04:51:02;;;;;;;3.75;1.60;;;20.30;94.40;;;;;;5091583;28;20028;-75
2021/08/18 04:53:28;;;;;;;3.83;1.40;;;20.30;94.40;;;;;;5091313;28;20027;-75
2021/08/18 04:55:54;;;;;;;2.25;1.15;;;20.30;94.30;;;;;;5091677;28;20027;-75
2021/08/18 04:58:20;;;;;;;2.08;1.38;;;20.20;94.60;;;;;;5073451;28;20024;-75
2021/08/18 05:00:46;;;;;;;2.30;1.30;;;20.30;94.80;;;;;;5091387;28;20031;-75
2021/08/18 05:03:13;;;;;;;1.77;1.20;;;20.30;94.70;;;;;;5091319;28;20028;-75
2021/08/18 05:05:39;;;;;;;8.30;1.23;;;20.30;94.50;;;;;;5073110;28;20047;-75
2021/08/18 05:08:06;;;;;;;1.48;1.30;;;20.30;94.50;;;;;;5073334;28;20463;-75
2021/08/18 05:10:36;;;;;;;1.30;1.20;;;20.30;94.50;;;;;;5073259;28;20107;-75
2021/08/18 05:13:02;;;;;;;1.20;1.08;;;20.30;94.60;;;;;;5091325;28;20020;-75
2021/08/18 05:15:28;;;;;;;3.78;1.20;;;20.30;94.80;;;;;;5091286;28;20035;-75
2021/08/18 05:17:53;;;;;;;1.60;1.50;;;20.30;94.90;;;;;;5073110;28;20028;-75
2021/08/18 05:20:20;;;;;;;3.20;1.20;;;20.40;94.80;;;;;;5091317;28;20034;-75
2021/08/18 05:22:47;;;;;;;3.47;1.23;;;20.40;94.70;;;;;;5091268;28;20391;-75
2021/08/18 05:25:14;;;;;;;4.75;1.10;;;20.40;94.50;;;;;;5072899;28;20024;-75
2021/08/18 05:27:40;;;;;;;1.58;1.13;;;20.40;94.60;;;;;;5091281;28;20027;-75
2021/08/18 05:30:09;;;;;;;5.15;1.35;;;20.40;94.40;;;;;;5091378;28;20033;-75
2021/08/18 05:32:35;;;;;;;2.70;0.85;;;20.40;94.70;;;;;;5091253;28;20024;-75
2021/08/18 05:35:02;;;;;;;2.53;1.30;;;20.40;94.90;;;;;;5090805;28;20028;-75
2021/08/18 05:37:28;;;;;;;1.33;1.23;;;20.30;95.00;;;;;;5091274;28;20012;-75
2021/08/18 05:39:53;;;;;;;1.65;1.35;;;20.30;95.00;;;;;;5091182;28;20111;-75
2021/08/18 05:42:19;;;;;;;4.13;1.10;;;20.30;95.20;;;;;;5091046;28;20468;-75
2021/08/18 05:44:45;;;;;;;1.70;1.23;;;20.20;95.30;;;;;;5072940;28;20399;-75
2021/08/18 05:47:10;;;;;;;2.85;1.45;;;20.30;95.40;;;;;;5090960;28;20028;-75
2021/08/18 05:49:36;;;;;;;3.20;1.02;;;20.30;95.30;;;;;;5076227;28;20077;-75
2021/08/18 05:52:02;;;;;;;1.90;1.40;;;20.40;95.40;;;;;;5095044;28;20028;-75
2021/08/18 05:54:28;;;;;;;1.70;1.20;;;20.40;95.50;;;;;;5094669;28;20476;-75
2021/08/18 05:56:54;;;;;;;4.18;1.58;;;20.50;95.40;;;;;;5094688;28;20441;-75
2021/08/18 05:59:19;;;;;;;1.77;1.40;;;20.60;95.40;;;;;;5094777;28;20016;-75
2021/08/18 06:01:45;;;;;;;2.08;1.10;;;20.70;95.10;;;;;;5094579;28;20491;-75
2021/08/18 06:04:11;;;;;;;1.00;0.95;;;20.80;95.00;;;;;;5094326;28;20078;-75
2021/08/18 06:06:37;;;;;;;2.85;1.48;;;20.90;94.90;;;;;;5094546;28;20051;-75
2021/08/18 06:09:03;;;;;;;4.75;1.63;;;21.00;94.90;;;;;;5094374;28;20136;-75
2021/08/18 06:11:28;;;;;;;2.17;1.08;;;21.10;95.20;;;;;;5094572;28;20131;-75
2021/08/18 06:13:54;;;;;;;1.30;1.17;;;21.10;95.00;;;;;;5094369;28;20451;-75
2021/08/18 06:16:20;;;;;;;1.33;1.00;;;21.10;94.80;;;;;;5094362;28;20084;-75
2021/08/18 06:18:47;;;;;;;1.20;1.10;;;21.10;94.90;;;;;;5094333;28;20020;-75
2021/08/18 06:21:13;;;;;;;3.78;1.50;;;21.20;95.00;;;;;;5094161;28;20028;-75
2021/08/18 06:23:39;;;;;;;1.38;1.13;;;21.20;94.90;;;;;;5094008;28;20027;-75
2021/08/18 06:26:04;;;;;;;1.48;1.38;;;21.30;95.00;;;;;;5076383;28;20479;-75
2021/08/18 06:28:30;;;;;;;1.20;1.10;;;21.40;94.90;;;;;;5094283;28;20386;-75
2021/08/18 06:30:57;;;;;;;1.30;1.20;;;21.60;95.10;;;;;;5093939;28;20027;-75
2021/08/18 06:33:23;;;;;;;2.25;1.45;;;21.60;94.70;;;;;;5093809;28;20399;-75
2021/08/18 06:35:49;;;;;;;2.13;1.10;;;21.70;94.60;;;;;;5093971;28;20019;-75
2021/08/18 06:38:14;;;;;;;2.45;1.00;;;21.70;94.70;;;;;;5093949;28;20024;-75
2021/08/18 06:40:40;;;;;;;5.40;1.20;;;21.70;94.70;;;;;;5093976;28;20024;-75
2021/08/18 06:43:06;;;;;;;1.08;1.05;;;21.80;95.10;;;;;;5093560;28;20024;-75
2021/08/18 06:45:31;;;;;;;1.70;1.48;;;21.90;95.00;;;;;;5075599;28;20479;-75
2021/08/18 06:47:57;;;;;;;1.20;0.80;;;21.90;94.70;;;;;;5093888;28;20040;-75
2021/08/18 06:50:23;;;;;;;3.58;1.45;;;22.00;94.00;;;;;;5090394;28;20489;-75
2021/08/18 06:52:49;;;;;;;3.25;1.40;;;22.10;94.30;;;;;;5075415;28;20487;-75
2021/08/18 06:55:15;;;;;;;3.88;1.35;;;22.10;94.40;;;;;;5093761;28;20052;-75
2021/08/18 06:57:41;;;;;;;2.75;1.10;;;22.20;93.50;;;;;;5093566;28;20103;-75
2021/08/18 07:00:09;;;;;;;3.92;1.20;;;22.20;92.30;;;;;;5092665;28;20099;-75
2021/08/18 07:02:48;;;;;;;3.15;1.27;;;22.20;92.10;;;;;;5093217;28;20074;-75
2021/08/18 07:05:15;;;;;;;2.72;1.40;;;22.30;92.50;;;;;;5075312;28;20028;-75
2021/08/18 07:07:41;;;;;;;1.10;1.00;;;22.30;92.50;;;;;;5093205;28;20063;-75
2021/08/18 07:10:07;;;;;;;1.75;1.13;;;22.40;92.20;;;;;;5093446;28;20028;-75
2021/08/18 07:12:33;;;;;;;1.30;1.10;;;22.50;92.00;;;;;;5093106;28;20395;-75
2021/08/18 07:14:58;;;;;;;1.40;1.30;;;22.50;89.20;;;;;;5093226;28;20099;-75
2021/08/18 07:17:24;;;;;;;0.98;0.90;;;22.50;89.60;;;;;;5075190;28;20028;-75
2021/08/18 07:19:50;;;;;;;1.30;1.20;;;22.60;88.60;;;;;;5092880;28;20024;-75
2021/08/18 07:22:16;;;;;;;4.10;1.55;;;22.60;88.30;;;;;;5093169;28;20039;-75
2021/08/18 07:24:41;;;;;;;1.77;1.27;;;22.60;88.80;;;;;;5092962;28;20019;-74
2021/08/18 07:27:07;;;;;;;1.40;1.00;;;22.60;89.70;;;;;;5074594;28;20031;-74
2021/08/18 07:29:33;;;;;;;1.00;1.00;;;22.70;89.10;;;;;;5073998;28;20077;-74
2021/08/18 07:31:59;;;;;;;1.90;1.08;;;22.80;87.90;;;;;;5092143;28;20020;-75
2021/08/18 07:34:25;;;;;;;2.65;1.05;;;22.90;88.10;;;;;;5074002;28;20012;-74
2021/08/18 07:36:51;;;;;;;1.25;0.82;;;22.90;88.10;;;;;;5092155;28;20024;-74
2021/08/18 07:39:16;;;;;;;2.10;1.17;;;23.00;87.40;;;;;;5073875;28;20467;-75
2021/08/18 07:41:42;;;;;;;4.25;1.30;;;23.00;85.80;;;;;;5092040;28;20115;-74
2021/08/18 07:44:08;;;;;;;1.58;0.90;;;23.00;85.60;;;;;;5075192;28;20101;-74
2021/08/18 07:46:33;;;;;;;2.22;0.98;;;23.10;85.70;;;;;;5075357;28;20020;-75
2021/08/18 07:48:59;;;;;;;1.98;1.10;;;23.10;85.30;;;;;;5093610;28;20020;-74
2021/08/18 07:51:25;;;;;;;0.75;0.75;;;23.20;84.40;;;;;;5072961;28;20387;-74
2021/08/18 07:53:51;;;;;;;1.08;0.88;;;23.20;86.00;;;;;;5073038;28;20097;-74
2021/08/18 07:56:16;;;;;;;0.93;0.93;;;23.20;84.20;;;;;;5071763;28;20043;-74
2021/08/18 07:58:42;;;;;;;2.25;0.80;;;23.20;85.90;;;;;;5073173;28;20031;-74
2021/08/18 08:01:08;;;;;;;2.33;1.00;;;23.30;87.60;;;;;;5073064;28;20119;-74
2021/08/18 08:03:33;;;;;;;1.60;0.98;;;23.30;84.30;;;;;;5072398;28;20052;-75
2021/08/18 08:05:59;;;;;;;1.67;1.13;;;23.30;84.80;;;;;;5072100;28;20488;-75
2021/08/18 08:08:25;;;;;;;1.20;0.82;;;23.30;81.90;;;;;;5072194;28;20036;-75
2021/08/18 08:10:51;;;;;;;1.40;1.30;;;23.30;81.00;;;;;;5071818;28;20009;-75
2021/08/18 08:13:17;;;;;;;1.38;0.93;;;23.30;80.50;;;;;;5072067;28;20472;-75
2021/08/18 08:15:43;;;;;;;1.13;1.02;;;23.40;80.60;;;;;;5071925;28;20107;-75
2021/08/18 08:18:10;;;;;;;0.82;0.82;;;23.40;80.50;;;;;;5071896;28;20083;-75
2021/08/18 08:20:38;;;;;;;1.30;1.13;;;23.40;81.20;;;;;;5085483;28;20016;-75
2021/08/18 08:23:04;;;;;;;1.35;1.00;;;23.40;82.40;;;;;;5092598;28;20027;-75
2021/08/18 08:25:30;;;;;;;2.15;0.90;;;23.50;83.40;;;;;;5074745;28;20360;-75
2021/08/18 08:27:56;;;;;;;1.08;0.95;;;23.60;82.30;;;;;;5092835;28;20020;-74
2021/08/18 08:30:22;;;;;;;3.38;1.10;;;23.60;83.00;;;;;;5073771;28;20016;-74
2021/08/18 08:32:49;;;;;;;1.05;0.88;;;23.70;81.80;;;;;;5091704;28;20047;-75
2021/08/18 08:35:15;;;;;;;0.88;0.88;;;23.60;77.60;;;;;;5091911;28;20111;-74
2021/08/18 08:37:41;;;;;;;2.38;0.90;;;23.70;77.70;;;;;;5091835;28;20028;-74
2021/08/18 08:40:07;;;;;;;1.58;1.02;;;23.80;79.40;;;;;;5091730;28;20107;-74
2021/08/18 08:42:34;;;;;;;2.17;1.13;;;23.90;78.80;;;;;;5091497;28;20020;-74
2021/08/18 08:45:02;;;;;;;1.45;1.08;;;23.90;76.40;;;;;;5091702;28;20024;-74
2021/08/18 08:47:28;;;;;;;3.05;0.98;;;24.00;75.50;;;;;;5091657;28;20022;-74
2021/08/18 08:49:55;;;;;;;1.20;1.00;;;24.00;75.40;;;;;;5091562;28;20028;-74
2021/08/18 08:52:21;;;;;;;1.13;0.90;;;24.10;73.20;;;;;;5091677;28;20135;-74
2021/08/18 08:54:47;;;;;;;1.75;1.23;;;24.20;74.30;;;;;;5091481;28;20448;-74
2021/08/18 08:57:13;;;;;;;2.10;1.10;;;24.30;73.10;;;;;;5088352;28;20020;-74
2021/08/18 08:59:39;;;;;;;0.88;0.88;;;24.30;72.60;;;;;;5091757;28;20372;-74
2021/08/18 09:02:12;;;;;;;0.88;0.88;;;24.40;73.20;;;;;;5091444;28;20106;-74
2021/08/18 09:04:39;;;;;;;2.58;1.05;;;24.40;71.30;;;;;;5091462;28;20020;-74
2021/08/18 09:07:10;;;;;;;1.00;0.88;;;24.50;71.20;;;;;;5091257;28;20055;-74
2021/08/18 09:09:38;;;;;;;0.88;0.88;;;24.60;71.90;;;;;;5091383;28;20023;-74
2021/08/18 09:12:15;;;;;;;1.13;0.93;;;24.70;74.20;;;;;;5091382;28;20031;-74
2021/08/18 09:14:42;;;;;;;1.48;0.90;;;24.70;75.30;;;;;;5091306;28;20487;-74
2021/08/18 09:17:30;;;;;;;0.80;0.80;;;24.70;74.70;;;;;;5091419;28;20499;-74
2021/08/18 09:20:02;;;;;;;0.85;0.85;;;24.80;71.90;;;;;;5091284;28;20021;-74
2021/08/18 09:22:28;;;;;;;0.70;0.70;;;24.80;71.60;;;;;;5091409;28;20028;-74
2021/08/18 09:25:08;;;;;;;1.08;0.90;;;24.90;70.40;;;;;;5077267;28;20020;-74
2021/08/18 09:27:34;;;;;;;0.80;0.75;;;24.90;69.80;;;;;;5077360;28;20077;-74
2021/08/18 09:30:00;;;;;;;1.83;1.20;;;24.90;67.20;;;;;;5095386;28;20028;-74
2021/08/18 09:32:32;;;;;;;1.48;0.90;;;25.00;68.10;;;;;;5095078;28;20028;-74
2021/08/18 09:35:25;;;;;;;1.10;1.00;;;25.00;65.80;;;;;;5077258;28;20028;-74
2021/08/18 09:38:09;;;;;;;1.02;0.93;;;25.00;69.50;;;;;;5092907;28;20044;-74
2021/08/18 09:40:45;;;;;;;1.20;1.10;;;25.10;70.80;;;;;;5095072;28;20304;-74
2021/08/18 09:43:17;;;;;;;0.80;0.80;;;25.20;68.80;;;;;;5094843;28;20033;-74
2021/08/18 09:45:47;;;;;;;;;;;25.20;71.00;;;;;;5095686;28;20361;-74
2021/08/18 09:48:17;;;;;;;1.20;0.80;;;25.40;68.30;;;;;;5095122;28;20002;-74
2021/08/18 09:50:57;;;;;;;0.85;0.82;;;25.30;67.80;;;;;;5094835;28;20162;-74
2021/08/18 09:53:29;;;;;;;0.90;0.75;;;25.40;68.70;;;;;;5094681;28;20535;-75
2021/08/18 09:55:59;;;;;;;;;;;25.50;69.80;;;;;;5095174;28;20028;-74
2021/08/18 09:58:27;;;;;;;1.42;0.85;;;25.50;70.20;;;;;;5094739;28;19915;-74
2021/08/18 10:00:54;;;;;;;1.23;0.95;;;25.50;68.60;;;;;;5094748;28;20387;-74
2021/08/18 10:03:21;;;;;;;0.70;0.70;;;25.60;68.90;;;;;;5076378;28;20479;-74
2021/08/18 10:05:49;;;;;;;3.03;1.10;;;25.60;69.60;;;;;;5094240;28;20016;-75
2021/08/18 10:08:15;;;;;;;1.45;1.35;;;25.70;67.20;;;;;;5094522;28;20029;-74
2021/08/18 10:10:42;;;;;;;1.25;0.82;;;25.70;67.10;;;;;;5094707;28;20057;-74
2021/08/18 10:13:09;;;;;;;0.68;0.68;;;25.80;66.80;;;;;;5094528;28;20028;-74
2021/08/18 10:15:36;;;;;;;1.67;1.00;;;25.90;69.70;;;;;;5094327;28;20102;-74
2021/08/18 10:18:05;;;;;;;0.77;0.77;;;26.00;67.80;;;;;;5094438;28;20031;-74
2021/08/18 10:20:31;;;;;;;1.00;0.70;;;26.10;65.60;;;;;;5094236;28;20024;-74
2021/08/18 10:23:03;;;;;;;0.98;0.88;;;26.10;63.00;;;;;;5094236;28;20445;-74
2021/08/18 10:25:35;;;;;;;1.23;0.70;;;26.20;67.20;;;;;;5092941;28;20097;-74
2021/08/18 10:28:08;;;;;;;1.10;1.02;;;26.30;66.40;;;;;;5076128;28;20051;-74
2021/08/18 10:30:49;;;;;;;1.50;1.23;;;26.30;61.90;;;;;;5094170;28;20031;-74
2021/08/18 10:33:55;;;;;;;1.20;1.10;;;26.50;66.40;;;;;;5093949;28;20475;-74
2021/08/18 10:36:42;;;;;;;1.00;0.90;;;26.70;64.00;;;;;;5093465;28;20483;-74
2021/08/18 10:39:25;;;;;;;0.75;0.70;;;26.70;60.80;;;;;;5094173;28;20434;-74
2021/08/18 10:42:11;;;;;;;1.02;1.00;;;26.50;60.50;;;;;;5094963;28;20056;-74
2021/08/18 10:44:38;;;;;;;0.95;0.82;;;26.50;62.70;;;;;;5094962;28;20101;-74
2021/08/18 10:47:21;;;;;;;0.80;0.80;;;26.50;65.10;;;;;;5094918;28;20126;-74
2021/08/18 10:50:14;;;;;;;6.32;1.30;;;26.60;64.00;;;;;;5094820;28;20035;-74
2021/08/18 10:52:42;;;;;;;1.00;0.90;;;26.80;63.20;;;;;;5049107;28;20119;-74
2021/08/18 10:55:14;;;;;;;2.50;0.68;;;26.90;63.50;;;;;;5074420;28;20376;-74
2021/08/18 10:57:50;;;;;;;0.63;0.63;;;27.10;64.90;;;;;;5055454;28;20411;-74
2021/08/18 11:00:15;;;;;;;1.30;0.80;;;27.20;63.70;;;;;;5073266;28;20437;-74
2021/08/18 11:02:54;;;;;;;1.05;1.05;;;27.00;60.50;;;;;;5073146;28;20024;-74
2021/08/18 11:05:49;;;;;;;0.98;0.88;;;26.80;61.00;;;;;;5073286;28;20073;-74
2021/08/18 11:08:19;;;;;;;1.33;1.08;;;26.70;61.80;;;;;;5070615;28;20040;-74
2021/08/18 11:10:54;;;;;;;1.10;1.00;;;26.60;61.60;;;;;;5073203;28;20052;-74
2021/08/18 11:13:38;;;;;;;0.82;0.73;;;26.70;60.10;;;;;;5072966;28;20021;-74
2021/08/18 11:16:29;;;;;;;1.20;0.73;;;26.70;61.70;;;;;;5055011;28;20024;-74
2021/08/18 11:19:22;;;;;;;3.53;1.00;;;26.70;60.80;;;;;;5073000;28;20032;-74
2021/08/18 11:21:48;;;;;;;0.90;0.90;;;26.90;61.80;;;;;;5070090;28;20442;-74
2021/08/18 11:24:17;;;;;;;2.30;1.20;;;27.10;60.90;;;;;;5072827;28;20029;-74
2021/08/18 11:26:45;;;;;;;0.85;0.85;;;27.30;64.60;;;;;;5072831;28;20464;-74
2021/08/18 11:29:12;;;;;;;0.93;0.93;;;27.50;63.10;;;;;;5054534;28;20160;-74
2021/08/18 11:31:43;;;;;;;1.33;0.88;;;27.30;59.60;;;;;;5072850;28;20550;-74
2021/08/18 11:34:19;;;;;;;0.77;0.77;;;27.30;60.10;;;;;;5072648;28;20050;-74
2021/08/18 11:36:45;;;;;;;1.10;1.10;;;27.50;63.00;;;;;;5072505;28;20024;-74
2021/08/18 11:39:13;;;;;;;1.35;1.05;;;27.70;61.90;;;;;;5072595;28;20028;-74
2021/08/18 11:41:43;;;;;;;0.90;0.90;;;27.80;62.00;;;;;;5072637;28;20029;-74
2021/08/18 11:44:14;;;;;;;2.10;0.82;;;27.80;61.50;;;;;;5072537;28;20017;-74
2021/08/18 11:46:40;;;;;;;0.90;0.90;;;27.80;61.50;;;;;;5072162;28;20056;-74
2021/08/18 11:49:08;;;;;;;0.85;0.85;;;27.70;60.80;;;;;;5073152;28;20101;-74
2021/08/18 11:51:35;;;;;;;1.15;1.00;;;27.60;59.30;;;;;;5092537;28;20043;-74
2021/08/18 11:54:01;;;;;;;0.80;0.80;;;27.70;61.70;;;;;;5092568;28;20531;-74
2021/08/18 11:56:28;;;;;;;6.00;1.20;;;27.80;61.80;;;;;;5092527;28;20099;-74
2021/08/18 11:59:02;;;;;;;1.00;0.90;;;27.90;62.50;;;;;;5092385;28;20035;-74
2021/08/18 12:01:29;;;;;;;1.08;1.00;;;28.00;61.60;;;;;;5092390;28;20027;-74
2021/08/18 12:03:56;;;;;;;1.40;1.30;;;28.00;60.20;;;;;;5073874;28;20028;-74
2021/08/18 12:06:36;;;;;;;0.80;0.80;;;28.20;60.20;;;;;;5092270;28;20075;-75
2021/08/18 12:09:04;;;;;;;1.08;0.85;;;28.10;58.60;;;;;;5092179;28;20016;-74
2021/08/18 12:11:39;;;;;;;1.30;0.80;;;28.30;60.20;;;;;;5073818;28;20443;-75
2021/08/18 12:14:10;;;;;;;1.38;1.30;;;28.20;57.50;;;;;;5092020;28;20020;-74
2021/08/18 12:16:36;;;;;;;1.73;0.95;;;28.30;59.80;;;;;;5074010;28;20032;-74
2021/08/18 12:19:28;;;;;;;0.88;0.88;;;28.50;61.80;;;;;;5091782;28;20558;-74
2021/08/18 12:22:06;;;;;;;1.20;1.00;;;28.50;56.50;;;;;;5089371;28;20495;-74
2021/08/18 12:24:32;;;;;;;3.40;1.20;;;28.60;62.00;;;;;;5091949;28;20111;-74
2021/08/18 12:27:07;;;;;;;0.90;0.90;;;28.50;58.40;;;;;;5073924;28;20383;-74
2021/08/18 12:29:33;;;;;;;1.13;1.13;;;28.50;57.80;;;;;;5091854;28;20020;-75
2021/08/18 12:32:01;;;;;;;1.05;1.00;;;28.40;56.20;;;;;;5091734;28;20024;-75
2021/08/18 12:34:29;;;;;;;1.42;1.23;;;28.60;58.40;;;;;;5091758;28;20407;-74
2021/08/18 12:37:20;;;;;;;3.45;1.08;;;28.60;56.40;;;;;;5091545;28;20447;-75
2021/08/18 12:39:55;;;;;;;1.83;1.17;;;28.60;56.50;;;;;;5091667;28;20069;-75
2021/08/18 12:42:34;;;;;;;2.90;1.05;;;28.80;57.80;;;;;;5088558;28;20099;-75
2021/08/18 12:45:06;;;;;;;1.38;1.00;;;28.80;56.90;;;;;;5091555;28;20020;-75
2021/08/18 12:47:53;;;;;;;1.00;1.00;;;28.70;56.40;;;;;;5091479;28;20498;-74
2021/08/18 12:50:28;;;;;;;1.10;1.00;;;28.80;56.50;;;;;;5091359;28;20097;-75
2021/08/18 12:52:54;;;;;;;3.08;1.20;;;28.80;54.10;;;;;;5091646;28;20024;-75